createdAt,value
2022-08-05T22:12:18.851Z,7.10
2022-08-05T22:14:57.517Z,6.57
2022-08-05T22:17:27.718Z,7.10
2022-08-05T22:20:11.278Z,6.60
2022-08-05T22:22:57.061Z,7.17
2022-08-05T22:26:10.334Z,6.20
2022-08-05T22:28:33.394Z,6.50
2022-08-05T22:31:06.507Z,6.10
2022-08-05T22:33:57.425Z,5.70
2022-08-05T22:36:26.218Z,5.43
2022-08-05T22:38:56.063Z,5.80
2022-08-05T22:42:09.415Z,6.03
2022-08-05T22:44:19.254Z,6.30
2022-08-05T22:46:50.955Z,5.93
2022-08-05T22:49:46.131Z,5.70
2022-08-05T22:52:16.710Z,5.60
2022-08-05T22:55:00.166Z,5.90
2022-08-05T22:57:36.187Z,6.27
2022-08-05T23:00:12.059Z,5.27
2022-08-05T23:02:48.617Z,5.60
2022-08-05T23:05:18.645Z,5.57
2022-08-05T23:07:50.233Z,5.33
2022-08-05T23:10:20.939Z,5.87
2022-08-05T23:12:55.592Z,5.70
2022-08-05T23:15:35.252Z,5.50
2022-08-05T23:18:11.598Z,5.90
2022-08-05T23:20:43.155Z,5.80
2022-08-05T23:23:13.213Z,6.00
2022-08-05T23:25:51.258Z,5.40
2022-08-05T23:28:23.919Z,5.30
2022-08-05T23:31:07.005Z,5.73
2022-08-05T23:34:03.692Z,5.23
2022-08-05T23:36:40.244Z,4.90
2022-08-05T23:39:17.278Z,5.30
2022-08-05T23:41:53.887Z,5.43
2022-08-05T23:44:27.994Z,5.30
2022-08-05T23:47:14.316Z,5.53
2022-08-05T23:49:46.256Z,5.23
2022-08-05T23:52:28.782Z,5.30
2022-08-05T23:55:02.091Z,5.40
2022-08-05T23:57:35.775Z,5.13
